CheckWX is a tool to help pilots better visualize weather data.  It is not intended as a substitute for an official pre-flight weather briefing.

00:22:47 UTC

FGBT TAF
Bata Airport
Equatorial Guinea
TAF FGBT 112300Z 1200/1224 20008KT 9999 TS SCT010 FEW020CB PROB30 TEMPO 1200/1206 4000 TSRA BKN008 FEW018CB BECMG 1206/1208 NSW BECMG 1214/1216 TS TEMPO 1218/1224 4000 TSRA BKN008 FEW018CB

Nov-12@
00:00 UTC

Nov-12 @ 00:00 UTC

Nov-12@
06:00 UTC

Nov-12 @ 06:00 UTC

TAF FGBT 112300Z 1200/1224 20008KT 9999 TS SCT010 FEW020CB
Wind
  • 200° at 8 KTS
Conditions
Thunderstorm
Cloud Levels
  • Scattered at 1,000' AGL
  • Few at 2,000' AGL

Nov-12@
00:00 UTC

Nov-12 @ 00:00 UTC

Nov-12@
06:00 UTC

Nov-12 @ 06:00 UTC

PROB30 TEMPO 1200/1206 4000 TSRA BKN008 FEW018CB

Temporary - 30% Likelihood

Temporary - 30% Likelihood during this time.

Conditions
Thunderstorm, Rain
Cloud Levels
  • Broken at 800' AGL
  • Few at 1,800' AGL

Nov-12@
06:00 UTC

Nov-12 @ 06:00 UTC

Nov-12@
14:00 UTC

Nov-12 @ 14:00 UTC

BECMG 1206/1208 NSW

Becoming

Becoming Conditions expected by Tue, Nov 12, 2019 @ 08:00 UTC

Wind
  • 200° at 8 KTS
Conditions
No significant weather
Cloud Levels
  • Scattered at 1,000' AGL
  • Few at 2,000' AGL

Nov-12@
14:00 UTC

Nov-12 @ 14:00 UTC

Nov-13@
00:00 UTC

Nov-13 @ 00:00 UTC

BECMG 1214/1216 TS

Becoming

Becoming Conditions expected by Tue, Nov 12, 2019 @ 16:00 UTC

Wind
  • 200° at 8 KTS
Conditions
Thunderstorm
Cloud Levels
  • Scattered at 1,000' AGL
  • Few at 2,000' AGL

Nov-12@
18:00 UTC

Nov-12 @ 18:00 UTC

Nov-13@
00:00 UTC

Nov-13 @ 00:00 UTC

TEMPO 1218/1224 4000 TSRA BKN008 FEW018CB

Temporary

Temporary Changes expected for less than half the time period

Conditions
Thunderstorm, Rain
Cloud Levels
  • Broken at 800' AGL
  • Few at 1,800' AGL